createdAt,value
2018-04-05T00:00:57.364Z,2.60
2018-04-05T00:01:57.451Z,2.70
2018-04-05T00:02:57.528Z,2.70
2018-04-05T00:03:57.610Z,2.60
2018-04-05T00:04:57.695Z,2.70
2018-04-05T00:05:57.786Z,2.60
2018-04-05T00:06:58.493Z,2.30
2018-04-05T00:07:57.960Z,2.50
2018-04-05T00:08:58.040Z,2.50
2018-04-05T00:09:58.129Z,2.70
2018-04-05T00:10:58.216Z,2.60
2018-04-05T00:11:58.308Z,2.40
2018-04-05T00:12:58.400Z,2.40
2018-04-05T00:13:58.488Z,2.40
2018-04-05T00:14:58.578Z,2.60
2018-04-05T00:15:58.675Z,2.40
2018-04-05T00:16:58.764Z,2.10
2018-04-05T00:17:58.857Z,2.40
2018-04-05T00:18:58.950Z,2.20
2018-04-05T00:19:59.047Z,2.00
2018-04-05T00:20:59.144Z,2.30
2018-04-05T00:21:59.239Z,2.10
2018-04-05T00:22:59.325Z,2.30
2018-04-05T00:23:59.421Z,2.20
2018-04-05T00:24:59.514Z,2.40
2018-04-05T00:25:59.612Z,2.10
2018-04-05T00:26:59.695Z,2.30
2018-04-05T00:27:59.788Z,2.40
2018-04-05T00:28:59.880Z,2.50
2018-04-05T00:30:00.020Z,2.30
2018-04-05T00:31:00.059Z,2.20
2018-04-05T00:32:00.152Z,2.20
2018-04-05T00:33:00.245Z,2.30
2018-04-05T00:34:00.338Z,2.40
2018-04-05T00:35:00.433Z,2.10
2018-04-05T00:36:00.518Z,2.00
2018-04-05T00:37:00.613Z,2.20
2018-04-05T00:38:00.701Z,2.30
2018-04-05T00:39:00.800Z,2.50
2018-04-05T00:40:00.890Z,1.80
2018-04-05T00:41:00.994Z,2.30
2018-04-05T00:42:01.070Z,2.10
2018-04-05T00:43:01.160Z,2.40
2018-04-05T00:44:01.253Z,2.00
2018-04-05T00:45:01.344Z,1.90
2018-04-05T00:46:01.441Z,2.10
2018-04-05T00:47:01.542Z,2.00
2018-04-05T00:48:01.646Z,2.00
2018-04-05T00:49:01.743Z,2.10
2018-04-05T00:50:01.828Z,2.10
2018-04-05T00:51:01.925Z,2.30
2018-04-05T00:52:02.013Z,2.10
2018-04-05T00:53:02.105Z,2.00
2018-04-05T00:54:02.201Z,1.80
2018-04-05T00:55:02.291Z,1.80
2018-04-05T00:56:02.387Z,2.20
2018-04-05T00:57:02.477Z,2.00
2018-04-05T00:58:02.570Z,2.10
2018-04-05T00:59:02.724Z,2.20
2018-04-05T01:00:02.792Z,2.00
2018-04-05T01:01:02.861Z,2.20
2018-04-05T01:02:02.951Z,2.40
2018-04-05T01:03:03.045Z,2.20
2018-04-05T01:04:03.136Z,2.30
2018-04-05T01:05:03.232Z,2.30
2018-04-05T01:06:03.321Z,2.20
2018-04-05T01:07:03.422Z,2.00
2018-04-05T01:08:03.507Z,2.30
2018-04-05T01:09:03.596Z,2.40
2018-04-05T01:10:03.682Z,2.30
2018-04-05T01:11:03.776Z,2.00
2018-04-05T01:12:03.873Z,2.00
2018-04-05T01:13:03.964Z,2.10
2018-04-05T01:14:04.057Z,2.10
2018-04-05T01:15:04.156Z,2.20
2018-04-05T01:16:04.247Z,2.30
2018-04-05T01:17:04.342Z,2.20
2018-04-05T01:18:04.431Z,2.40
2018-04-05T01:19:04.524Z,2.20
2018-04-05T01:20:04.617Z,2.30
2018-04-05T01:21:04.710Z,2.30
2018-04-05T01:22:04.800Z,2.30
2018-04-05T01:23:04.893Z,1.90
2018-04-05T01:24:04.986Z,2.50
2018-04-05T01:25:05.084Z,2.50
2018-04-05T01:26:05.169Z,2.30
2018-04-05T01:27:05.266Z,2.50
2018-04-05T01:28:05.353Z,2.50
2018-04-05T01:29:05.449Z,2.30
2018-04-05T01:30:05.537Z,2.10
2018-04-05T01:31:05.629Z,2.20
2018-04-05T01:32:05.720Z,2.20
2018-04-05T01:33:05.822Z,2.00
2018-04-05T01:34:05.904Z,2.20
2018-04-05T01:35:06.000Z,1.90
2018-04-05T01:36:06.095Z,2.30
2018-04-05T01:37:06.194Z,1.90
2018-04-05T01:38:06.303Z,2.50
2018-04-05T01:39:06.394Z,1.90
2018-04-05T01:40:06.487Z,2.00
2018-04-05T01:41:06.578Z,2.00
2018-04-05T01:42:06.671Z,2.10
2018-04-05T01:43:06.762Z,2.10
2018-04-05T01:44:06.856Z,2.10
2018-04-05T01:45:06.950Z,2.10
2018-04-05T01:46:07.044Z,2.00
2018-04-05T01:47:07.138Z,2.10
2018-04-05T01:48:07.227Z,1.90
2018-04-05T01:49:07.336Z,1.80
2018-04-05T01:50:07.416Z,2.00
2018-04-05T01:51:07.511Z,2.00
2018-04-05T01:52:07.603Z,1.80
2018-04-05T01:53:07.695Z,2.00
2018-04-05T01:54:07.796Z,1.90
2018-04-05T01:55:07.890Z,2.10
2018-04-05T01:56:07.989Z,2.00
2018-04-05T01:57:08.073Z,2.10
2018-04-05T01:58:08.173Z,1.90
2018-04-05T01:59:08.279Z,1.80
2018-04-05T02:00:08.362Z,1.90
2018-04-05T02:01:08.449Z,2.10
2018-04-05T02:02:08.541Z,1.90
2018-04-05T02:03:08.635Z,2.00
2018-04-05T02:04:08.732Z,2.10
2018-04-05T02:05:08.817Z,1.80
2018-04-05T02:06:08.901Z,1.90
2018-04-05T02:07:09.087Z,2.00
2018-04-05T02:08:09.086Z,1.80
2018-04-05T02:09:09.175Z,1.80
2018-04-05T02:10:09.281Z,1.90
2018-04-05T02:11:09.358Z,1.70
2018-04-05T02:12:09.465Z,1.80
2018-04-05T02:13:09.558Z,1.80
2018-04-05T02:14:09.654Z,1.80
2018-04-05T02:15:09.754Z,1.60
2018-04-05T02:16:09.836Z,1.70
2018-04-05T02:17:09.929Z,1.80
2018-04-05T02:18:10.015Z,2.00
2018-04-05T02:19:10.103Z,1.80
2018-04-05T02:20:10.191Z,1.70
2018-04-05T02:21:10.280Z,1.60
2018-04-05T02:22:10.368Z,2.00
2018-04-05T02:23:10.463Z,1.80
2018-04-05T02:24:19.195Z,1.90
2018-04-05T02:25:10.665Z,1.90
2018-04-05T02:26:10.762Z,2.10
2018-04-05T02:27:10.854Z,2.10
2018-04-05T02:28:10.948Z,2.00
2018-04-05T02:29:11.047Z,1.90
2018-04-05T02:30:11.137Z,2.00
2018-04-05T02:31:11.224Z,1.70
2018-04-05T02:32:11.313Z,2.00
2018-04-05T02:33:11.408Z,2.00
2018-04-05T02:34:11.499Z,2.20
2018-04-05T02:35:11.589Z,1.90
2018-04-05T02:36:11.684Z,2.10
2018-04-05T02:37:11.776Z,1.70
2018-04-05T02:38:11.860Z,2.10
2018-04-05T02:39:11.959Z,1.80
2018-04-05T02:40:12.054Z,2.00
2018-04-05T02:41:12.144Z,1.90
2018-04-05T02:42:12.239Z,2.20
2018-04-05T02:43:12.325Z,2.10
2018-04-05T02:44:12.417Z,2.10
2018-04-05T02:45:12.509Z,2.10
2018-04-05T02:46:12.586Z,2.00
2018-04-05T02:47:12.680Z,2.30
2018-04-05T02:48:12.776Z,2.10
2018-04-05T02:49:12.876Z,1.80
2018-04-05T02:50:12.971Z,2.10
2018-04-05T02:51:13.060Z,1.90
2018-04-05T02:52:13.153Z,2.00
2018-04-05T02:53:13.255Z,2.00
2018-04-05T02:54:13.348Z,2.10
2018-04-05T02:55:13.442Z,2.00
2018-04-05T02:56:13.533Z,2.20
2018-04-05T02:57:13.617Z,2.20
2018-04-05T02:58:13.710Z,2.00
2018-04-05T02:59:13.803Z,2.20
2018-04-05T03:00:13.898Z,2.00
2018-04-05T03:01:13.992Z,2.10
2018-04-05T03:02:14.086Z,2.10
2018-04-05T03:03:14.181Z,2.30
2018-04-05T03:04:21.880Z,2.00
2018-04-05T03:05:21.984Z,1.80
2018-04-05T03:06:14.455Z,1.90
2018-04-05T03:07:14.530Z,1.80
2018-04-05T03:08:14.647Z,1.80
2018-04-05T03:09:14.749Z,1.70
2018-04-05T03:10:14.828Z,1.70
2018-04-05T03:11:14.921Z,1.60
2018-04-05T03:12:15.029Z,1.70
2018-04-05T03:13:15.111Z,1.70
2018-04-05T03:14:15.200Z,1.50
2018-04-05T03:15:15.297Z,1.50
2018-04-05T03:16:15.393Z,1.50
2018-04-05T03:17:15.481Z,1.60
2018-04-05T03:18:15.572Z,1.70
2018-04-05T03:19:15.665Z,1.60
2018-04-05T03:20:15.762Z,1.70
2018-04-05T03:21:15.849Z,1.50
2018-04-05T03:22:15.945Z,1.50
2018-04-05T03:23:16.032Z,1.50
2018-04-05T03:24:16.128Z,1.50
2018-04-05T03:25:16.216Z,1.60
2018-04-05T03:26:16.323Z,1.20
2018-04-05T03:27:16.406Z,1.40
2018-04-05T03:28:16.499Z,1.40
2018-04-05T03:29:16.600Z,1.60
2018-04-05T03:30:16.697Z,1.60
2018-04-05T03:31:16.783Z,1.30
2018-04-05T03:32:16.878Z,1.60
2018-04-05T03:33:16.969Z,1.40
2018-04-05T03:34:17.059Z,1.40
2018-04-05T03:35:17.193Z,1.40
2018-04-05T03:36:17.244Z,1.40
2018-04-05T03:37:17.350Z,1.50
2018-04-05T03:38:17.452Z,1.40
2018-04-05T03:39:17.544Z,1.20
2018-04-05T03:40:17.639Z,1.40
2018-04-05T03:41:17.737Z,1.50
2018-04-05T03:42:17.829Z,1.60
2018-04-05T03:43:17.926Z,1.60
2018-04-05T03:44:25.657Z,1.50
2018-04-05T03:45:25.749Z,1.70
2018-04-05T03:46:18.218Z,1.40
2018-04-05T03:47:18.316Z,1.40
2018-04-05T03:48:18.397Z,1.60
2018-04-05T03:49:18.498Z,1.70
2018-04-05T03:50:18.594Z,1.50
2018-04-05T03:51:18.681Z,1.70
2018-04-05T03:52:18.775Z,1.60
2018-04-05T03:53:18.870Z,1.60
2018-04-05T03:54:19.016Z,2.00
2018-04-05T03:55:19.050Z,1.60
2018-04-05T03:56:19.142Z,1.90
2018-04-05T03:57:19.234Z,1.70
2018-04-05T03:58:19.329Z,1.70
2018-04-05T03:59:19.430Z,1.70
2018-04-05T04:00:19.524Z,1.60
2018-04-05T04:01:19.610Z,1.80
2018-04-05T04:02:19.708Z,1.70
2018-04-05T04:03:19.808Z,1.60
2018-04-05T04:04:19.899Z,1.60
2018-04-05T04:05:19.997Z,1.70
2018-04-05T04:06:20.091Z,1.80
2018-04-05T04:07:20.179Z,1.60
2018-04-05T04:08:20.278Z,1.60
2018-04-05T04:09:20.391Z,1.60
2018-04-05T04:10:20.529Z,1.80
2018-04-05T04:11:20.618Z,1.90
2018-04-05T04:12:20.710Z,2.10
2018-04-05T04:13:20.796Z,1.70
2018-04-05T04:14:20.869Z,1.70
2018-04-05T04:15:20.944Z,1.90
2018-04-05T04:16:21.029Z,2.10
2018-04-05T04:17:21.134Z,1.80
2018-04-05T04:18:21.232Z,1.80
2018-04-05T04:19:21.355Z,2.20
2018-04-05T04:20:21.441Z,2.00
2018-04-05T04:21:21.525Z,2.20
2018-04-05T04:22:21.624Z,1.90
2018-04-05T04:23:21.707Z,1.70
2018-04-05T04:24:21.794Z,1.90
2018-04-05T04:25:29.544Z,1.80
2018-04-05T04:26:21.996Z,1.90
2018-04-05T04:27:22.067Z,2.10
2018-04-05T04:28:22.169Z,1.80
2018-04-05T04:29:22.262Z,2.10
2018-04-05T04:30:22.347Z,1.70
2018-04-05T04:31:22.436Z,2.10
2018-04-05T04:32:22.526Z,1.80
2018-04-05T04:33:22.609Z,2.20
2018-04-05T04:34:22.703Z,1.80
2018-04-05T04:35:22.803Z,1.80
2018-04-05T04:36:22.892Z,2.00
2018-04-05T04:37:22.978Z,2.00
2018-04-05T04:38:23.078Z,1.70
2018-04-05T04:39:23.153Z,1.90
2018-04-05T04:40:23.237Z,1.70
2018-04-05T04:41:23.330Z,2.10
2018-04-05T04:42:23.425Z,2.10
2018-04-05T04:43:23.522Z,2.30
2018-04-05T04:44:23.617Z,2.50
2018-04-05T04:45:23.684Z,2.30
2018-04-05T04:46:23.786Z,2.40
2018-04-05T04:47:24.028Z,2.50
2018-04-05T04:48:24.013Z,2.50
2018-04-05T04:49:24.085Z,1.90
2018-04-05T04:50:24.121Z,2.40
2018-04-05T04:51:24.180Z,1.90
2018-04-05T04:52:24.284Z,2.00
2018-04-05T04:53:24.369Z,2.10
2018-04-05T04:54:24.654Z,2.50
2018-04-05T04:55:24.559Z,2.50
2018-04-05T04:56:24.702Z,2.50
2018-04-05T04:57:24.725Z,2.40
2018-04-05T04:58:24.830Z,2.60
2018-04-05T04:59:25.115Z,2.20
2018-04-05T05:00:24.954Z,2.50
2018-04-05T05:01:25.174Z,2.40
2018-04-05T05:02:25.166Z,2.40
2018-04-05T05:03:25.271Z,2.20
2018-04-05T05:04:25.443Z,2.20
2018-04-05T05:05:25.513Z,2.20
2018-04-05T05:06:25.663Z,3.80
2018-04-05T05:07:25.767Z,2.70
2018-04-05T05:08:25.844Z,2.80
2018-04-05T05:09:25.941Z,2.10
2018-04-05T05:10:26.035Z,2.80
2018-04-05T05:11:26.137Z,2.50
2018-04-05T05:12:26.238Z,2.50
2018-04-05T05:13:26.350Z,3.30
2018-04-05T05:14:26.447Z,2.50
2018-04-05T05:15:26.548Z,2.60
2018-04-05T05:16:26.642Z,2.60
2018-04-05T05:17:26.737Z,2.70
2018-04-05T05:18:26.836Z,2.60
2018-04-05T05:19:26.933Z,2.20
2018-04-05T05:20:27.069Z,2.50
2018-04-05T05:21:27.200Z,3.10
2018-04-05T05:22:27.285Z,2.60
2018-04-05T05:23:27.372Z,2.70
2018-04-05T05:24:27.472Z,2.60
2018-04-05T05:25:27.558Z,2.70
2018-04-05T05:26:27.641Z,2.40
2018-04-05T05:27:27.762Z,2.50
2018-04-05T05:28:27.868Z,2.70
2018-04-05T05:29:27.976Z,2.50
2018-04-05T05:30:28.074Z,2.70
2018-04-05T05:31:28.206Z,2.40
2018-04-05T05:32:28.318Z,2.50
2018-04-05T05:33:28.413Z,2.70
2018-04-05T05:34:28.491Z,2.50
2018-04-05T05:35:28.588Z,2.40
2018-04-05T05:36:28.684Z,2.50
2018-04-05T05:37:28.816Z,2.80
2018-04-05T05:38:28.879Z,2.60
2018-04-05T05:39:28.960Z,4.40
2018-04-05T05:40:29.117Z,2.70
2018-04-05T05:41:29.136Z,2.70
2018-04-05T05:42:29.241Z,3.50
2018-04-05T05:43:29.333Z,2.50
2018-04-05T05:44:29.424Z,2.60
2018-04-05T05:45:29.501Z,2.80
2018-04-05T05:46:29.593Z,2.70
2018-04-05T05:47:29.730Z,2.40
2018-04-05T05:48:29.842Z,2.70
2018-04-05T05:49:29.967Z,2.80
2018-04-05T05:50:30.057Z,2.50
2018-04-05T05:51:30.163Z,2.40
2018-04-05T05:52:30.994Z,2.40
2018-04-05T05:53:30.341Z,2.10
2018-04-05T05:54:30.461Z,3.10
2018-04-05T05:55:30.546Z,2.80
2018-04-05T05:56:30.651Z,2.60
2018-04-05T05:57:30.729Z,2.50
2018-04-05T05:58:30.815Z,2.00
2018-04-05T05:59:30.953Z,2.00
2018-04-05T06:00:31.081Z,2.10
2018-04-05T06:01:31.178Z,2.10
2018-04-05T06:02:31.273Z,2.00
2018-04-05T06:03:31.370Z,2.10
2018-04-05T06:04:31.449Z,2.20
2018-04-05T06:05:31.545Z,1.90
2018-04-05T06:06:31.639Z,2.10
2018-04-05T06:07:31.735Z,2.00
2018-04-05T06:08:31.829Z,2.10
2018-04-05T06:09:31.921Z,2.10
2018-04-05T06:10:32.015Z,2.10
2018-04-05T06:11:32.107Z,2.40
2018-04-05T06:12:32.201Z,2.10
2018-04-05T06:13:32.296Z,1.90
2018-04-05T06:14:32.391Z,1.90
2018-04-05T06:15:32.487Z,2.00
2018-04-05T06:16:32.581Z,2.10
2018-04-05T06:17:32.695Z,2.10
2018-04-05T06:18:32.794Z,1.90
2018-04-05T06:19:32.891Z,1.70
2018-04-05T06:20:32.986Z,1.80
2018-04-05T06:21:33.107Z,1.70
2018-04-05T06:22:33.206Z,2.80
2018-04-05T06:23:33.345Z,1.80
2018-04-05T06:24:33.394Z,1.70
2018-04-05T06:25:33.489Z,1.60
2018-04-05T06:26:33.581Z,1.30
2018-04-05T06:27:33.678Z,1.50
2018-04-05T06:28:33.773Z,1.50
2018-04-05T06:29:33.868Z,1.60
2018-04-05T06:30:34.040Z,1.50
2018-04-05T06:31:34.089Z,1.50
2018-04-05T06:32:34.192Z,1.50
2018-04-05T06:33:34.279Z,1.60
2018-04-05T06:34:34.376Z,1.30
2018-04-05T06:35:34.480Z,1.10
2018-04-05T06:36:34.583Z,1.20
2018-04-05T06:37:34.669Z,1.30
2018-04-05T06:38:34.771Z,1.30
2018-04-05T06:39:34.861Z,1.20
2018-04-05T06:40:34.955Z,1.40
2018-04-05T06:41:35.065Z,1.20
2018-04-05T06:42:35.148Z,1.30
2018-04-05T06:43:35.248Z,1.30
2018-04-05T06:44:35.349Z,1.30
2018-04-05T06:45:35.442Z,1.70
2018-04-05T06:46:35.538Z,1.40
2018-04-05T06:47:35.631Z,1.30
2018-04-05T06:48:35.723Z,1.70
2018-04-05T06:49:35.812Z,1.90
2018-04-05T06:50:35.908Z,1.30
2018-04-05T06:51:36.002Z,1.20
2018-04-05T06:52:36.096Z,1.40
2018-04-05T06:53:36.192Z,1.20
2018-04-05T06:54:36.290Z,1.20
2018-04-05T06:55:36.441Z,1.30
2018-04-05T06:56:36.535Z,1.50
2018-04-05T06:57:36.630Z,2.50
2018-04-05T06:58:36.726Z,1.50
2018-04-05T06:59:36.823Z,1.80
2018-04-05T07:00:36.920Z,1.30
2018-04-05T07:01:37.017Z,1.40
2018-04-05T07:02:37.117Z,1.30
2018-04-05T07:03:37.213Z,1.90
2018-04-05T07:04:37.309Z,1.70
2018-04-05T07:05:37.404Z,1.60
2018-04-05T07:06:37.507Z,1.60
2018-04-05T07:07:37.606Z,1.70
2018-04-05T07:08:37.701Z,2.50
2018-04-05T07:09:37.796Z,3.50
2018-04-05T07:10:37.897Z,1.70
2018-04-05T07:11:37.993Z,1.80
2018-04-05T07:12:38.090Z,1.70
2018-04-05T07:13:38.194Z,2.00
2018-04-05T07:14:38.284Z,1.70
2018-04-05T07:15:38.382Z,1.50
2018-04-05T07:16:38.479Z,1.50
2018-04-05T07:17:38.573Z,1.60
2018-04-05T07:18:38.665Z,1.60
2018-04-05T07:19:38.760Z,1.80
2018-04-05T07:20:38.851Z,1.70
2018-04-05T07:21:38.950Z,1.80
2018-04-05T07:22:39.049Z,1.90
2018-04-05T07:23:39.145Z,1.70
2018-04-05T07:24:39.239Z,1.70
2018-04-05T07:25:39.346Z,2.00
2018-04-05T07:26:39.440Z,1.60
2018-04-05T07:27:39.537Z,1.80
2018-04-05T07:28:39.632Z,2.00
2018-04-05T07:29:39.731Z,2.00
2018-04-05T07:30:39.824Z,2.20
2018-04-05T07:31:39.920Z,2.00
2018-04-05T07:32:40.016Z,1.90
2018-04-05T07:33:40.111Z,2.00
2018-04-05T07:34:40.207Z,2.00
2018-04-05T07:35:40.299Z,1.80
2018-04-05T07:36:40.386Z,2.10
2018-04-05T07:37:40.480Z,1.90
2018-04-05T07:38:40.571Z,1.80
2018-04-05T07:39:40.669Z,1.80
2018-04-05T07:40:40.768Z,1.90
2018-04-05T07:41:40.861Z,2.00
2018-04-05T07:42:40.963Z,2.10
2018-04-05T07:43:41.058Z,1.90
2018-04-05T07:44:41.157Z,1.90
2018-04-05T07:45:41.249Z,1.90
2018-04-05T07:46:41.345Z,1.80
2018-04-05T07:47:41.488Z,2.80
2018-04-05T07:48:41.537Z,2.80
2018-04-05T07:49:41.637Z,2.20
2018-04-05T07:50:41.729Z,2.90
2018-04-05T07:51:41.827Z,4.20
2018-04-05T07:52:41.923Z,3.40
2018-04-05T07:53:42.023Z,2.30
2018-04-05T07:54:42.116Z,2.40
2018-04-05T07:55:42.211Z,2.20
2018-04-05T07:56:42.336Z,2.30
2018-04-05T07:57:42.429Z,2.10
2018-04-05T07:58:42.527Z,1.80
2018-04-05T07:59:42.609Z,2.00
2018-04-05T08:00:42.701Z,2.00
2018-04-05T08:01:42.813Z,1.80
2018-04-05T08:02:42.893Z,1.90
2018-04-05T08:03:42.990Z,2.20
2018-04-05T08:04:43.085Z,1.80
2018-04-05T08:05:43.178Z,1.50
2018-04-05T08:06:43.278Z,1.60
2018-04-05T08:07:43.372Z,1.40
2018-04-05T08:08:43.472Z,1.70
2018-04-05T08:09:43.567Z,1.40
2018-04-05T08:10:43.670Z,1.40
2018-04-05T08:11:43.753Z,1.70
2018-04-05T08:12:43.856Z,1.90
2018-04-05T08:13:43.956Z,1.80
2018-04-05T08:14:44.048Z,1.50
2018-04-05T08:15:44.158Z,1.50
2018-04-05T08:16:44.296Z,1.40
2018-04-05T08:17:44.338Z,1.40
2018-04-05T08:18:44.432Z,1.70
2018-04-05T08:19:44.528Z,1.60
2018-04-05T08:20:44.621Z,1.50
2018-04-05T08:21:44.718Z,1.90
2018-04-05T08:22:44.829Z,6.30
2018-04-05T08:23:44.923Z,5.10
2018-04-05T08:24:45.017Z,5.10
2018-04-05T08:25:45.118Z,20.50
2018-04-05T08:26:45.212Z,19.60
2018-04-05T08:27:45.309Z,30.10
2018-04-05T08:28:45.403Z,4.20
2018-04-05T08:29:45.502Z,1.70
2018-04-05T08:30:45.601Z,9.00
2018-04-05T08:31:45.695Z,4.60
2018-04-05T08:32:45.793Z,2.00
2018-04-05T08:33:45.891Z,7.30
2018-04-05T08:34:45.985Z,2.30
2018-04-05T08:35:46.081Z,2.10
2018-04-05T08:36:46.178Z,2.70
2018-04-05T08:37:46.270Z,2.10
2018-04-05T08:38:46.366Z,2.20
2018-04-05T08:39:46.462Z,1.80
2018-04-05T08:40:46.557Z,2.20
2018-04-05T08:41:46.654Z,1.80
2018-04-05T08:42:46.752Z,1.90
2018-04-05T08:43:46.848Z,2.00
2018-04-05T08:44:46.943Z,1.90
2018-04-05T08:45:47.040Z,1.90
2018-04-05T08:46:47.136Z,2.50
2018-04-05T08:47:47.230Z,1.90
2018-04-05T08:48:47.322Z,1.80
2018-04-05T08:49:47.424Z,1.90
2018-04-05T08:50:47.519Z,2.20
2018-04-05T08:51:47.624Z,2.10
2018-04-05T08:52:47.722Z,2.20
2018-04-05T08:53:47.834Z,2.30
2018-04-05T08:54:47.929Z,2.20
2018-04-05T08:55:48.026Z,2.20
2018-04-05T08:56:48.111Z,2.10
2018-04-05T08:57:48.199Z,2.10
2018-04-05T08:58:48.299Z,1.60
2018-04-05T08:59:48.394Z,1.90
2018-04-05T09:00:48.498Z,1.80
2018-04-05T09:01:48.587Z,2.00
2018-04-05T09:02:48.697Z,1.90
2018-04-05T09:03:48.794Z,1.90
2018-04-05T09:04:48.888Z,1.70
2018-04-05T09:05:48.975Z,2.00
2018-04-05T09:06:49.071Z,1.70
2018-04-05T09:07:49.173Z,1.80
2018-04-05T09:08:49.255Z,1.80
2018-04-05T09:09:49.349Z,1.80
2018-04-05T09:10:49.480Z,1.80
2018-04-05T09:11:49.574Z,1.80
2018-04-05T09:12:49.740Z,1.50
2018-04-05T09:13:49.708Z,1.70
2018-04-05T09:14:49.795Z,1.70
2018-04-05T09:15:49.895Z,2.10
2018-04-05T09:16:50.005Z,1.90
2018-04-05T09:17:50.102Z,1.70
2018-04-05T09:18:50.215Z,1.70
2018-04-05T09:19:50.393Z,1.90
2018-04-05T09:20:50.424Z,1.70
2018-04-05T09:21:51.170Z,1.70
2018-04-05T09:22:50.560Z,1.50
2018-04-05T09:23:50.757Z,1.60
2018-04-05T09:24:50.780Z,1.70
2018-04-05T09:25:50.840Z,1.70
2018-04-05T09:26:51.362Z,1.60
2018-04-05T09:27:50.992Z,1.60
2018-04-05T09:28:51.094Z,1.70
2018-04-05T09:29:51.222Z,1.70
2018-04-05T09:30:51.374Z,1.60
2018-04-05T09:31:51.339Z,1.60
2018-04-05T09:32:51.418Z,2.30
2018-04-05T09:33:51.596Z,1.70
2018-04-05T09:34:51.571Z,1.90
2018-04-05T09:35:51.719Z,1.60
2018-04-05T09:36:51.938Z,1.00
2018-04-05T09:37:51.966Z,1.80
2018-04-05T09:38:52.095Z,1.90
2018-04-05T09:39:52.213Z,1.10
2018-04-05T09:40:52.448Z,1.20
2018-04-05T09:41:52.785Z,1.30
2018-04-05T09:42:52.587Z,1.20
2018-04-05T09:43:52.641Z,0.80
2018-04-05T09:44:52.645Z,1.00
2018-04-05T09:45:52.877Z,1.00
2018-04-05T09:46:52.899Z,0.80
2018-04-05T09:47:53.035Z,0.90
2018-04-05T09:48:53.060Z,0.80
2018-04-05T09:49:53.152Z,1.00
2018-04-05T09:50:53.402Z,1.00
2018-04-05T09:51:53.407Z,1.00
2018-04-05T09:52:53.515Z,0.90
2018-04-05T09:53:53.639Z,1.20
2018-04-05T09:54:53.738Z,1.00
2018-04-05T09:55:53.972Z,1.20
2018-04-05T09:56:54.495Z,1.40
2018-04-05T09:57:54.129Z,1.20
2018-04-05T09:58:54.251Z,1.40
2018-04-05T09:59:54.704Z,2.20
2018-04-05T10:00:54.500Z,1.90
2018-04-05T10:01:54.951Z,1.80
2018-04-05T10:02:54.733Z,6.00
2018-04-05T10:03:54.970Z,10.90
2018-04-05T10:04:55.026Z,4.90
2018-04-05T10:05:55.053Z,2.50
2018-04-05T10:06:55.313Z,1.70
2018-04-05T10:07:55.452Z,1.70
2018-04-05T10:08:55.872Z,1.80
2018-04-05T10:09:55.487Z,1.80
2018-04-05T10:10:55.594Z,1.80
2018-04-05T10:11:55.723Z,1.80
2018-04-05T10:12:55.871Z,1.90
2018-04-05T10:13:55.963Z,1.70
2018-04-05T10:14:55.895Z,1.90
2018-04-05T10:15:56.130Z,1.80
2018-04-05T10:16:56.134Z,1.80
2018-04-05T10:17:56.399Z,1.70
2018-04-05T10:18:56.356Z,1.70
2018-04-05T10:19:56.732Z,2.00
2018-04-05T10:20:57.562Z,2.00
2018-04-05T10:21:56.643Z,2.00
2018-04-05T10:22:56.732Z,1.80
2018-04-05T10:23:56.886Z,1.60
2018-04-05T10:24:56.901Z,2.00
2018-04-05T10:25:57.161Z,1.70
2018-04-05T10:26:57.124Z,2.10
2018-04-05T10:27:57.252Z,1.80
2018-04-05T10:28:57.298Z,1.80
2018-04-05T10:29:57.395Z,1.90
2018-04-05T10:30:57.616Z,2.00
2018-04-05T10:31:57.596Z,1.90
2018-04-05T10:32:57.758Z,2.30
2018-04-05T10:33:57.765Z,2.40
2018-04-05T10:34:57.883Z,2.20
2018-04-05T10:35:57.978Z,2.40
2018-04-05T10:36:58.115Z,2.30
2018-04-05T10:37:58.148Z,2.50
2018-04-05T10:38:58.255Z,2.20
2018-04-05T10:39:58.388Z,2.40
2018-04-05T10:40:58.464Z,2.20
2018-04-05T10:41:58.609Z,2.50
2018-04-05T10:42:58.707Z,2.40
2018-04-05T10:43:58.816Z,2.70
2018-04-05T10:44:58.954Z,2.40
2018-04-05T10:45:59.132Z,2.80
2018-04-05T10:46:59.163Z,2.50
2018-04-05T10:47:59.272Z,2.30
2018-04-05T10:48:59.379Z,2.30
2018-04-05T10:49:59.483Z,2.70
2018-04-05T10:50:59.517Z,3.70
2018-04-05T10:51:59.648Z,3.00
2018-04-05T10:52:59.740Z,2.60
2018-04-05T10:53:59.925Z,2.50
2018-04-05T10:54:59.898Z,2.70
2018-04-05T10:55:59.991Z,2.60
2018-04-05T10:57:00.086Z,2.90
2018-04-05T10:58:00.171Z,2.60
2018-04-05T10:59:00.324Z,3.00
2018-04-05T11:00:00.399Z,2.90
2018-04-05T11:01:00.481Z,2.70
2018-04-05T11:02:00.612Z,2.50
2018-04-05T11:03:00.723Z,2.70
2018-04-05T11:04:00.788Z,2.50
2018-04-05T11:05:00.884Z,2.60
2018-04-05T11:06:01.049Z,2.60
2018-04-05T11:07:01.080Z,2.10
2018-04-05T11:08:01.122Z,2.20
2018-04-05T11:09:01.262Z,2.60
2018-04-05T11:10:01.355Z,2.30
2018-04-05T11:11:01.482Z,2.10
2018-04-05T11:12:01.591Z,2.10
2018-04-05T11:13:01.679Z,2.20
2018-04-05T11:14:01.845Z,2.20
2018-04-05T11:15:01.932Z,2.10
2018-04-05T11:16:01.948Z,2.20
2018-04-05T11:17:02.143Z,2.10
2018-04-05T11:18:02.190Z,2.00
2018-04-05T11:19:02.146Z,1.80
2018-04-05T11:20:02.241Z,1.90
2018-04-05T11:21:02.342Z,1.90
2018-04-05T11:22:02.475Z,2.00
2018-04-05T11:23:02.665Z,2.20
2018-04-05T11:24:02.630Z,2.00
2018-04-05T11:25:02.728Z,1.90
2018-04-05T11:26:02.825Z,1.70
2018-04-05T11:27:02.919Z,2.00
2018-04-05T11:28:03.021Z,1.90
2018-04-05T11:29:03.112Z,1.70
2018-04-05T11:30:03.206Z,1.50
2018-04-05T11:31:03.304Z,1.40
2018-04-05T11:32:03.401Z,1.70
2018-04-05T11:33:03.531Z,1.40
2018-04-05T11:34:03.600Z,1.50
2018-04-05T11:35:03.696Z,1.50
2018-04-05T11:36:03.793Z,1.80
2018-04-05T11:37:03.891Z,1.50
2018-04-05T11:38:03.989Z,1.30
2018-04-05T11:39:04.106Z,1.80
2018-04-05T11:40:04.152Z,1.70
2018-04-05T11:41:04.252Z,1.60
2018-04-05T11:42:04.352Z,1.40
2018-04-05T11:43:04.446Z,1.40
2018-04-05T11:44:04.544Z,1.60
2018-04-05T11:45:04.638Z,1.60
2018-04-05T11:46:04.734Z,1.40
2018-04-05T11:47:04.829Z,1.40
2018-04-05T11:48:04.925Z,1.10
2018-04-05T11:49:05.025Z,1.40
2018-04-05T11:50:05.111Z,1.30
2018-04-05T11:51:05.197Z,2.10
2018-04-05T11:52:05.295Z,2.00
2018-04-05T11:53:05.387Z,3.10
2018-04-05T11:54:05.483Z,1.70
2018-04-05T11:55:05.596Z,1.50
2018-04-05T11:56:05.706Z,1.30
2018-04-05T11:57:05.794Z,1.40
2018-04-05T11:58:05.882Z,1.40
2018-04-05T11:59:05.982Z,1.40
2018-04-05T12:00:06.078Z,1.80
2018-04-05T12:01:06.179Z,1.20
2018-04-05T12:02:06.271Z,1.80
2018-04-05T12:03:06.374Z,1.40
2018-04-05T12:04:06.462Z,1.40
2018-04-05T12:05:06.571Z,1.40
2018-04-05T12:06:06.666Z,1.40
2018-04-05T12:07:06.759Z,1.20
2018-04-05T12:08:06.859Z,1.40
2018-04-05T12:09:06.964Z,1.40
2018-04-05T12:10:07.057Z,1.20
2018-04-05T12:11:07.155Z,1.10
2018-04-05T12:12:07.252Z,1.30
2018-04-05T12:13:07.378Z,1.20
2018-04-05T12:14:07.445Z,1.30
2018-04-05T12:15:07.582Z,1.20
2018-04-05T12:16:07.616Z,1.40
2018-04-05T12:17:07.714Z,1.30
2018-04-05T12:18:07.810Z,1.30
2018-04-05T12:19:07.912Z,1.30
2018-04-05T12:20:08.010Z,1.40
2018-04-05T12:21:08.109Z,1.30
2018-04-05T12:22:08.205Z,1.50
2018-04-05T12:23:08.302Z,1.30
2018-04-05T12:24:08.399Z,1.50
2018-04-05T12:25:08.499Z,1.60
2018-04-05T12:26:08.599Z,1.50
2018-04-05T12:27:08.695Z,1.20
2018-04-05T12:28:08.795Z,1.20
2018-04-05T12:29:08.890Z,1.30
2018-04-05T12:30:08.989Z,1.30
2018-04-05T12:31:09.079Z,1.40
2018-04-05T12:32:09.159Z,1.30
2018-04-05T12:33:09.255Z,1.30
2018-04-05T12:34:09.357Z,1.30
2018-04-05T12:35:09.468Z,1.20
2018-04-05T12:36:09.574Z,1.30
2018-04-05T12:37:09.665Z,1.20
2018-04-05T12:38:09.759Z,1.40
2018-04-05T12:39:09.844Z,1.30
2018-04-05T12:40:09.946Z,1.20
2018-04-05T12:41:10.046Z,1.20
2018-04-05T12:42:10.132Z,1.20
2018-04-05T12:43:10.225Z,1.10
2018-04-05T12:44:10.308Z,1.20
2018-04-05T12:45:10.397Z,1.10
2018-04-05T12:46:10.474Z,0.90
2018-04-05T12:47:10.575Z,1.30
2018-04-05T12:48:10.692Z,1.20
2018-04-05T12:49:10.786Z,1.20
2018-04-05T12:50:10.904Z,1.10
2018-04-05T12:51:11.001Z,1.10
2018-04-05T12:52:11.086Z,1.70
2018-04-05T12:53:11.202Z,1.70
2018-04-05T12:54:11.295Z,1.60
2018-04-05T12:55:11.387Z,1.30
2018-04-05T12:56:11.485Z,1.50
2018-04-05T12:57:11.569Z,1.40
2018-04-05T12:58:11.667Z,1.70
2018-04-05T12:59:11.765Z,2.80
2018-04-05T13:00:11.884Z,2.10
2018-04-05T13:01:11.994Z,5.50
2018-04-05T13:02:12.067Z,3.90
2018-04-05T13:03:12.164Z,1.60
2018-04-05T13:04:12.265Z,1.20
2018-04-05T13:05:12.358Z,1.10
2018-04-05T13:06:12.452Z,1.40
2018-04-05T13:07:12.548Z,1.30
2018-04-05T13:08:12.645Z,1.30
2018-04-05T13:09:12.740Z,1.40
2018-04-05T13:10:12.842Z,1.50
2018-04-05T13:11:12.935Z,1.60
2018-04-05T13:12:13.033Z,1.40
2018-04-05T13:13:13.130Z,1.90
2018-04-05T13:14:13.223Z,1.50
2018-04-05T13:15:13.324Z,1.60
2018-04-05T13:16:13.424Z,1.80
2018-04-05T13:17:13.523Z,1.80
2018-04-05T13:18:13.614Z,1.70
2018-04-05T13:19:13.713Z,2.00
2018-04-05T13:20:13.813Z,1.70